sensor_id;sensor_type;location;lat;lon;timestamp;temperature;humidity
28175;SHT30;59417;44.788;10.334;2023-03-23T00:02:13;15.96;49.63
28175;SHT30;59417;44.788;10.334;2023-03-23T00:04:38;15.89;49.87
28175;SHT30;59417;44.788;10.334;2023-03-23T00:07:04;15.89;49.89
28175;SHT30;59417;44.788;10.334;2023-03-23T00:09:29;15.84;50.13
28175;SHT30;59417;44.788;10.334;2023-03-23T00:11:59;15.87;50.49
28175;SHT30;59417;44.788;10.334;2023-03-23T00:14:34;15.86;50.93
28175;SHT30;59417;44.788;10.334;2023-03-23T00:17:08;15.73;52.02
28175;SHT30;59417;44.788;10.334;2023-03-23T00:19:37;15.70;51.93
28175;SHT30;59417;44.788;10.334;2023-03-23T00:22:12;15.52;53.12
28175;SHT30;59417;44.788;10.334;2023-03-23T00:24:38;15.22;53.32
28175;SHT30;59417;44.788;10.334;2023-03-23T00:27:03;15.29;53.07
28175;SHT30;59417;44.788;10.334;2023-03-23T00:29:29;15.28;52.62
28175;SHT30;59417;44.788;10.334;2023-03-23T00:31:54;15.23;52.51
28175;SHT30;59417;44.788;10.334;2023-03-23T00:34:23;15.31;53.00
28175;SHT30;59417;44.788;10.334;2023-03-23T00:36:54;15.22;56.07
28175;SHT30;59417;44.788;10.334;2023-03-23T00:39:23;15.09;54.87
28175;SHT30;59417;44.788;10.334;2023-03-23T00:41:51;15.01;54.61
28175;SHT30;59417;44.788;10.334;2023-03-23T00:44:17;15.04;53.72
28175;SHT30;59417;44.788;10.334;2023-03-23T00:46:47;15.19;51.06
28175;SHT30;59417;44.788;10.334;2023-03-23T00:49:17;15.18;51.16
28175;SHT30;59417;44.788;10.334;2023-03-23T00:51:43;15.25;50.85
28175;SHT30;59417;44.788;10.334;2023-03-23T00:54:10;15.42;49.17
28175;SHT30;59417;44.788;10.334;2023-03-23T00:56:36;15.52;48.66
28175;SHT30;59417;44.788;10.334;2023-03-23T00:59:04;15.51;48.25
28175;SHT30;59417;44.788;10.334;2023-03-23T01:01:30;15.51;48.00
28175;SHT30;59417;44.788;10.334;2023-03-23T01:03:58;15.51;48.16
28175;SHT30;59417;44.788;10.334;2023-03-23T01:06:27;15.51;47.85
28175;SHT30;59417;44.788;10.334;2023-03-23T01:08:52;15.46;47.82
28175;SHT30;59417;44.788;10.334;2023-03-23T01:11:19;15.41;47.87
28175;SHT30;59417;44.788;10.334;2023-03-23T01:13:45;15.28;47.98
28175;SHT30;59417;44.788;10.334;2023-03-23T01:16:12;15.25;48.51
28175;SHT30;59417;44.788;10.334;2023-03-23T01:18:38;15.22;48.21
28175;SHT30;59417;44.788;10.334;2023-03-23T01:21:10;15.16;48.32
28175;SHT30;59417;44.788;10.334;2023-03-23T01:23:37;15.22;48.38
28175;SHT30;59417;44.788;10.334;2023-03-23T01:26:05;15.29;47.85
28175;SHT30;59417;44.788;10.334;2023-03-23T01:28:33;15.35;47.60
28175;SHT30;59417;44.788;10.334;2023-03-23T01:31:04;15.31;47.84
28175;SHT30;59417;44.788;10.334;2023-03-23T01:33:30;15.27;47.70
28175;SHT30;59417;44.788;10.334;2023-03-23T01:35:57;15.22;47.63
28175;SHT30;59417;44.788;10.334;2023-03-23T01:38:24;15.15;48.02
28175;SHT30;59417;44.788;10.334;2023-03-23T01:40:49;15.16;47.84
28175;SHT30;59417;44.788;10.334;2023-03-23T01:43:15;15.19;47.20
28175;SHT30;59417;44.788;10.334;2023-03-23T01:45:43;15.19;47.35
28175;SHT30;59417;44.788;10.334;2023-03-23T01:48:23;15.15;47.54
28175;SHT30;59417;44.788;10.334;2023-03-23T01:50:59;15.12;48.17
28175;SHT30;59417;44.788;10.334;2023-03-23T01:53:40;15.11;47.71
28175;SHT30;59417;44.788;10.334;2023-03-23T01:56:08;15.09;47.32
28175;SHT30;59417;44.788;10.334;2023-03-23T01:58:38;15.12;47.55
28175;SHT30;59417;44.788;10.334;2023-03-23T02:01:07;15.16;47.14
28175;SHT30;59417;44.788;10.334;2023-03-23T02:03:35;15.16;47.46
28175;SHT30;59417;44.788;10.334;2023-03-23T02:06:02;15.14;47.53
28175;SHT30;59417;44.788;10.334;2023-03-23T02:08:41;15.07;47.67
28175;SHT30;59417;44.788;10.334;2023-03-23T02:11:20;15.08;47.87
28175;SHT30;59417;44.788;10.334;2023-03-23T02:13:47;14.98;48.05
28175;SHT30;59417;44.788;10.334;2023-03-23T02:16:26;14.83;48.29
28175;SHT30;59417;44.788;10.334;2023-03-23T02:32:41;14.32;49.55
28175;SHT30;59417;44.788;10.334;2023-03-23T02:35:19;14.23;50.11
28175;SHT30;59417;44.788;10.334;2023-03-23T02:37:52;14.12;50.13
28175;SHT30;59417;44.788;10.334;2023-03-23T02:40:28;14.08;50.45
28175;SHT30;59417;44.788;10.334;2023-03-23T02:42:57;13.96;50.54
28175;SHT30;59417;44.788;10.334;2023-03-23T02:45:29;14.01;50.49
28175;SHT30;59417;44.788;10.334;2023-03-23T02:47:56;14.01;50.45
28175;SHT30;59417;44.788;10.334;2023-03-23T02:50:23;13.85;50.84
28175;SHT30;59417;44.788;10.334;2023-03-23T02:52:52;13.89;50.53
28175;SHT30;59417;44.788;10.334;2023-03-23T02:55:19;13.88;50.65
28175;SHT30;59417;44.788;10.334;2023-03-23T02:57:46;13.92;50.28
28175;SHT30;59417;44.788;10.334;2023-03-23T03:00:16;13.86;50.67
28175;SHT30;59417;44.788;10.334;2023-03-23T03:02:44;13.88;50.46
28175;SHT30;59417;44.788;10.334;2023-03-23T03:08:52;14.04;50.08
28175;SHT30;59417;44.788;10.334;2023-03-23T03:11:21;14.02;50.27
28175;SHT30;59417;44.788;10.334;2023-03-23T03:14:03;14.05;50.47
28175;SHT30;59417;44.788;10.334;2023-03-23T03:16:42;13.98;50.49
28175;SHT30;59417;44.788;10.334;2023-03-23T03:19:13;14.02;50.01
28175;SHT30;59417;44.788;10.334;2023-03-23T03:21:44;13.94;50.00
28175;SHT30;59417;44.788;10.334;2023-03-23T03:24:18;13.85;49.49
28175;SHT30;59417;44.788;10.334;2023-03-23T03:26:51;13.78;50.51
28175;SHT30;59417;44.788;10.334;2023-03-23T03:29:35;13.86;50.23
28175;SHT30;59417;44.788;10.334;2023-03-23T03:32:04;13.62;50.95
28175;SHT30;59417;44.788;10.334;2023-03-23T03:34:33;13.48;51.05
28175;SHT30;59417;44.788;10.334;2023-03-23T03:36:59;13.41;51.71
28175;SHT30;59417;44.788;10.334;2023-03-23T03:39:26;13.34;51.16
28175;SHT30;59417;44.788;10.334;2023-03-23T03:41:53;13.28;51.37
28175;SHT30;59417;44.788;10.334;2023-03-23T03:44:19;13.21;51.64
28175;SHT30;59417;44.788;10.334;2023-03-23T03:46:45;13.30;51.63
28175;SHT30;59417;44.788;10.334;2023-03-23T03:49:11;13.41;51.63
28175;SHT30;59417;44.788;10.334;2023-03-23T03:51:40;13.35;51.99
28175;SHT30;59417;44.788;10.334;2023-03-23T03:54:10;13.37;51.75
28175;SHT30;59417;44.788;10.334;2023-03-23T03:56:37;13.50;51.16
28175;SHT30;59417;44.788;10.334;2023-03-23T03:59:38;13.44;51.32
28175;SHT30;59417;44.788;10.334;2023-03-23T04:02:23;13.50;51.21
28175;SHT30;59417;44.788;10.334;2023-03-23T04:04:51;13.50;51.40
28175;SHT30;59417;44.788;10.334;2023-03-23T04:07:19;13.50;52.00
28175;SHT30;59417;44.788;10.334;2023-03-23T04:09:47;13.58;51.75
28175;SHT30;59417;44.788;10.334;2023-03-23T04:12:15;13.64;51.82
28175;SHT30;59417;44.788;10.334;2023-03-23T04:14:56;13.62;52.09
28175;SHT30;59417;44.788;10.334;2023-03-23T04:17:27;13.65;52.17
28175;SHT30;59417;44.788;10.334;2023-03-23T04:19:54;13.54;52.86
28175;SHT30;59417;44.788;10.334;2023-03-23T04:22:24;13.51;53.69
28175;SHT30;59417;44.788;10.334;2023-03-23T04:24:57;13.50;53.38
28175;SHT30;59417;44.788;10.334;2023-03-23T04:27:25;13.48;53.41
28175;SHT30;59417;44.788;10.334;2023-03-23T04:29:55;13.61;53.13
28175;SHT30;59417;44.788;10.334;2023-03-23T04:32:39;13.58;53.31
28175;SHT30;59417;44.788;10.334;2023-03-23T04:35:13;13.61;53.49
28175;SHT30;59417;44.788;10.334;2023-03-23T04:38:02;13.77;53.30
28175;SHT30;59417;44.788;10.334;2023-03-23T04:40:28;13.78;53.31
28175;SHT30;59417;44.788;10.334;2023-03-23T04:43:12;13.77;53.72
28175;SHT30;59417;44.788;10.334;2023-03-23T04:46:02;13.82;53.65
28175;SHT30;59417;44.788;10.334;2023-03-23T04:48:34;13.78;53.72
28175;SHT30;59417;44.788;10.334;2023-03-23T04:51:08;13.77;53.81
28175;SHT30;59417;44.788;10.334;2023-03-23T04:53:35;13.77;53.81
28175;SHT30;59417;44.788;10.334;2023-03-23T04:56:01;13.71;54.23
28175;SHT30;59417;44.788;10.334;2023-03-23T04:58:33;13.74;54.39
28175;SHT30;59417;44.788;10.334;2023-03-23T05:01:20;13.68;54.45
28175;SHT30;59417;44.788;10.334;2023-03-23T05:03:57;13.74;54.33
28175;SHT30;59417;44.788;10.334;2023-03-23T05:06:23;13.81;54.21
28175;SHT30;59417;44.788;10.334;2023-03-23T05:08:53;13.79;54.23
28175;SHT30;59417;44.788;10.334;2023-03-23T05:11:21;13.72;54.55
28175;SHT30;59417;44.788;10.334;2023-03-23T05:13:46;13.70;54.75
28175;SHT30;59417;44.788;10.334;2023-03-23T05:16:12;13.71;54.15
28175;SHT30;59417;44.788;10.334;2023-03-23T05:18:39;13.79;54.17
28175;SHT30;59417;44.788;10.334;2023-03-23T05:21:08;13.68;54.38
28175;SHT30;59417;44.788;10.334;2023-03-23T05:23:37;13.66;54.30
28175;SHT30;59417;44.788;10.334;2023-03-23T05:26:14;13.66;54.49
28175;SHT30;59417;44.788;10.334;2023-03-23T05:28:40;13.68;54.24
28175;SHT30;59417;44.788;10.334;2023-03-23T05:31:19;13.77;54.35
28175;SHT30;59417;44.788;10.334;2023-03-23T05:33:44;13.74;54.61
28175;SHT30;59417;44.788;10.334;2023-03-23T05:36:18;13.71;54.46
28175;SHT30;59417;44.788;10.334;2023-03-23T05:39:11;13.75;54.31
28175;SHT30;59417;44.788;10.334;2023-03-23T05:42:06;13.77;54.06
28175;SHT30;59417;44.788;10.334;2023-03-23T05:44:49;13.70;54.03
28175;SHT30;59417;44.788;10.334;2023-03-23T05:47:16;13.70;54.82
28175;SHT30;59417;44.788;10.334;2023-03-23T05:49:48;13.70;54.17
28175;SHT30;59417;44.788;10.334;2023-03-23T05:52:17;13.72;54.20
28175;SHT30;59417;44.788;10.334;2023-03-23T05:54:43;13.79;53.79
28175;SHT30;59417;44.788;10.334;2023-03-23T05:57:09;13.70;54.26
28175;SHT30;59417;44.788;10.334;2023-03-23T06:00:01;13.72;54.46
28175;SHT30;59417;44.788;10.334;2023-03-23T06:02:38;13.70;54.54
28175;SHT30;59417;44.788;10.334;2023-03-23T06:05:05;13.72;54.44
28175;SHT30;59417;44.788;10.334;2023-03-23T06:07:33;13.79;54.37
28175;SHT30;59417;44.788;10.334;2023-03-23T06:10:05;13.85;53.94
28175;SHT30;59417;44.788;10.334;2023-03-23T06:12:37;13.91;53.79
28175;SHT30;59417;44.788;10.334;2023-03-23T06:15:16;13.88;54.18
28175;SHT30;59417;44.788;10.334;2023-03-23T06:18:13;13.94;54.21
28175;SHT30;59417;44.788;10.334;2023-03-23T06:20:46;14.02;53.93
28175;SHT30;59417;44.788;10.334;2023-03-23T06:23:29;13.92;54.82
28175;SHT30;59417;44.788;10.334;2023-03-23T06:25:58;14.01;54.84
28175;SHT30;59417;44.788;10.334;2023-03-23T06:28:25;13.92;53.93
28175;SHT30;59417;44.788;10.334;2023-03-23T06:30:53;13.88;54.37
28175;SHT30;59417;44.788;10.334;2023-03-23T06:33:19;13.95;53.97
28175;SHT30;59417;44.788;10.334;2023-03-23T06:36:11;14.08;54.08
28175;SHT30;59417;44.788;10.334;2023-03-23T06:38:48;14.12;54.55
28175;SHT30;59417;44.788;10.334;2023-03-23T06:41:17;14.05;54.65
28175;SHT30;59417;44.788;10.334;2023-03-23T06:43:44;13.98;54.86
28175;SHT30;59417;44.788;10.334;2023-03-23T06:46:14;14.16;55.36
28175;SHT30;59417;44.788;10.334;2023-03-23T06:48:39;14.26;55.76
28175;SHT30;59417;44.788;10.334;2023-03-23T06:51:06;14.29;54.71
28175;SHT30;59417;44.788;10.334;2023-03-23T06:53:34;14.40;53.71
28175;SHT30;59417;44.788;10.334;2023-03-23T06:56:00;14.53;53.75
28175;SHT30;59417;44.788;10.334;2023-03-23T06:58:28;14.47;53.92
28175;SHT30;59417;44.788;10.334;2023-03-23T07:00:56;14.49;54.13
28175;SHT30;59417;44.788;10.334;2023-03-23T07:03:28;14.43;54.29
28175;SHT30;59417;44.788;10.334;2023-03-23T07:05:54;14.52;53.82
28175;SHT30;59417;44.788;10.334;2023-03-23T07:08:24;14.64;53.73
28175;SHT30;59417;44.788;10.334;2023-03-23T07:10:52;14.70;54.21
28175;SHT30;59417;44.788;10.334;2023-03-23T07:13:21;14.90;52.96
28175;SHT30;59417;44.788;10.334;2023-03-23T07:15:51;14.98;52.47
28175;SHT30;59417;44.788;10.334;2023-03-23T07:18:18;14.92;52.70
28175;SHT30;59417;44.788;10.334;2023-03-23T07:20:50;14.94;52.72
28175;SHT30;59417;44.788;10.334;2023-03-23T07:23:17;15.02;52.77
28175;SHT30;59417;44.788;10.334;2023-03-23T07:25:49;15.05;52.63
28175;SHT30;59417;44.788;10.334;2023-03-23T07:28:21;15.02;52.80
28175;SHT30;59417;44.788;10.334;2023-03-23T07:30:48;15.14;52.21
28175;SHT30;59417;44.788;10.334;2023-03-23T07:33:14;15.23;51.92
28175;SHT30;59417;44.788;10.334;2023-03-23T07:35:41;15.41;51.82
28175;SHT30;59417;44.788;10.334;2023-03-23T07:38:10;15.43;51.84
28175;SHT30;59417;44.788;10.334;2023-03-23T07:40:37;15.45;52.41
28175;SHT30;59417;44.788;10.334;2023-03-23T07:43:10;15.42;53.36
28175;SHT30;59417;44.788;10.334;2023-03-23T07:45:54;15.41;52.06
28175;SHT30;59417;44.788;10.334;2023-03-23T07:48:23;15.42;53.20
28175;SHT30;59417;44.788;10.334;2023-03-23T07:50:51;15.35;53.34
28175;SHT30;59417;44.788;10.334;2023-03-23T07:53:16;15.38;53.97
28175;SHT30;59417;44.788;10.334;2023-03-23T07:55:48;15.34;52.73
28175;SHT30;59417;44.788;10.334;2023-03-23T07:58:34;15.38;53.90
28175;SHT30;59417;44.788;10.334;2023-03-23T08:01:00;15.42;53.30
28175;SHT30;59417;44.788;10.334;2023-03-23T08:03:29;15.38;53.64
28175;SHT30;59417;44.788;10.334;2023-03-23T08:06:17;15.55;53.11
28175;SHT30;59417;44.788;10.334;2023-03-23T08:09:08;15.56;53.04
28175;SHT30;59417;44.788;10.334;2023-03-23T08:11:57;15.62;53.94
28175;SHT30;59417;44.788;10.334;2023-03-23T08:14:46;15.86;54.22
28175;SHT30;59417;44.788;10.334;2023-03-23T08:17:25;15.98;51.98
28175;SHT30;59417;44.788;10.334;2023-03-23T08:20:09;16.12;52.71
28175;SHT30;59417;44.788;10.334;2023-03-23T08:22:59;16.21;52.58
28175;SHT30;59417;44.788;10.334;2023-03-23T08:25:45;16.28;51.33
28175;SHT30;59417;44.788;10.334;2023-03-23T08:28:44;16.45;51.23
28175;SHT30;59417;44.788;10.334;2023-03-23T08:31:42;16.13;51.69
28175;SHT30;59417;44.788;10.334;2023-03-23T08:34:29;16.09;51.65
28175;SHT30;59417;44.788;10.334;2023-03-23T08:37:05;16.14;51.22
28175;SHT30;59417;44.788;10.334;2023-03-23T08:39:54;16.31;51.76
28175;SHT30;59417;44.788;10.334;2023-03-23T08:42:40;16.30;51.89
28175;SHT30;59417;44.788;10.334;2023-03-23T08:45:25;16.41;52.45
28175;SHT30;59417;44.788;10.334;2023-03-23T08:48:12;16.45;51.61
28175;SHT30;59417;44.788;10.334;2023-03-23T08:51:16;16.62;52.23
28175;SHT30;59417;44.788;10.334;2023-03-23T08:54:01;16.71;51.88
28175;SHT30;59417;44.788;10.334;2023-03-23T08:57:03;16.89;53.06
28175;SHT30;59417;44.788;10.334;2023-03-23T08:59:46;16.75;53.14
28175;SHT30;59417;44.788;10.334;2023-03-23T09:02:17;16.86;53.21
28175;SHT30;59417;44.788;10.334;2023-03-23T09:04:54;16.79;52.42
28175;SHT30;59417;44.788;10.334;2023-03-23T09:07:46;16.88;53.23
28175;SHT30;59417;44.788;10.334;2023-03-23T09:10:13;17.09;52.63
28175;SHT30;59417;44.788;10.334;2023-03-23T09:12:39;17.41;53.16
28175;SHT30;59417;44.788;10.334;2023-03-23T09:15:07;17.67;52.24
28175;SHT30;59417;44.788;10.334;2023-03-23T09:17:39;17.85;50.13
28175;SHT30;59417;44.788;10.334;2023-03-23T09:20:06;17.67;50.16
28175;SHT30;59417;44.788;10.334;2023-03-23T09:22:46;17.53;50.72
28175;SHT30;59417;44.788;10.334;2023-03-23T09:25:14;17.37;49.09
28175;SHT30;59417;44.788;10.334;2023-03-23T09:27:41;17.34;51.21
28175;SHT30;59417;44.788;10.334;2023-03-23T09:30:10;17.46;49.86
28175;SHT30;59417;44.788;10.334;2023-03-23T09:32:37;17.47;50.57
28175;SHT30;59417;44.788;10.334;2023-03-23T09:35:06;17.50;47.54
28175;SHT30;59417;44.788;10.334;2023-03-23T09:37:38;17.47;48.46
28175;SHT30;59417;44.788;10.334;2023-03-23T09:40:06;17.41;48.73
28175;SHT30;59417;44.788;10.334;2023-03-23T09:53:58;17.66;48.65
28175;SHT30;59417;44.788;10.334;2023-03-23T09:56:26;17.85;49.41
28175;SHT30;59417;44.788;10.334;2023-03-23T09:59:00;17.74;48.45
28175;SHT30;59417;44.788;10.334;2023-03-23T10:06:59;17.69;48.96
28175;SHT30;59417;44.788;10.334;2023-03-23T10:09:26;17.70;48.98
28175;SHT30;59417;44.788;10.334;2023-03-23T10:12:00;17.77;49.67
28175;SHT30;59417;44.788;10.334;2023-03-23T10:14:37;17.92;49.56
28175;SHT30;59417;44.788;10.334;2023-03-23T10:17:22;18.02;50.70
28175;SHT30;59417;44.788;10.334;2023-03-23T10:22:31;18.09;48.57
28175;SHT30;59417;44.788;10.334;2023-03-23T10:25:32;18.09;49.62
28175;SHT30;59417;44.788;10.334;2023-03-23T10:28:20;18.04;47.38
28175;SHT30;59417;44.788;10.334;2023-03-23T10:30:49;18.22;47.44
28175;SHT30;59417;44.788;10.334;2023-03-23T10:33:22;18.41;49.10
28175;SHT30;59417;44.788;10.334;2023-03-23T10:38:58;18.49;49.70
28175;SHT30;59417;44.788;10.334;2023-03-23T10:41:24;18.57;50.40
28175;SHT30;59417;44.788;10.334;2023-03-23T10:43:49;18.76;51.10
28175;SHT30;59417;44.788;10.334;2023-03-23T10:52:11;19.59;46.73
28175;SHT30;59417;44.788;10.334;2023-03-23T10:54:46;19.72;46.21
28175;SHT30;59417;44.788;10.334;2023-03-23T10:57:25;19.65;46.60
28175;SHT30;59417;44.788;10.334;2023-03-23T11:02:38;19.44;46.29
28175;SHT30;59417;44.788;10.334;2023-03-23T11:05:18;19.51;48.34
28175;SHT30;59417;44.788;10.334;2023-03-23T11:07:51;19.70;48.75
28175;SHT30;59417;44.788;10.334;2023-03-23T11:12:47;20.09;45.25
28175;SHT30;59417;44.788;10.334;2023-03-23T11:15:24;20.09;46.62
28175;SHT30;59417;44.788;10.334;2023-03-23T11:18:09;19.90;46.92
28175;SHT30;59417;44.788;10.334;2023-03-23T11:20:37;19.93;45.39
28175;SHT30;59417;44.788;10.334;2023-03-23T11:23:11;20.02;45.40
28175;SHT30;59417;44.788;10.334;2023-03-23T11:28:48;19.82;44.34
28175;SHT30;59417;44.788;10.334;2023-03-23T11:31:17;19.65;44.69
28175;SHT30;59417;44.788;10.334;2023-03-23T11:36:12;19.57;45.72
28175;SHT30;59417;44.788;10.334;2023-03-23T11:38:40;19.49;46.06
28175;SHT30;59417;44.788;10.334;2023-03-23T11:41:11;19.59;46.71
28175;SHT30;59417;44.788;10.334;2023-03-23T11:43:44;19.68;45.33
28175;SHT30;59417;44.788;10.334;2023-03-23T11:46:14;19.79;45.24
28175;SHT30;59417;44.788;10.334;2023-03-23T11:49:03;19.93;45.94
28175;SHT30;59417;44.788;10.334;2023-03-23T11:51:33;20.12;45.23
28175;SHT30;59417;44.788;10.334;2023-03-23T11:56:45;20.68;45.78
28175;SHT30;59417;44.788;10.334;2023-03-23T11:59:33;20.95;45.36
28175;SHT30;59417;44.788;10.334;2023-03-23T12:15:16;19.72;43.94
28175;SHT30;59417;44.788;10.334;2023-03-23T12:20:47;20.43;43.91
28175;SHT30;59417;44.788;10.334;2023-03-23T12:23:25;20.39;44.14
28175;SHT30;59417;44.788;10.334;2023-03-23T12:33:59;19.83;44.20
28175;SHT30;59417;44.788;10.334;2023-03-23T12:36:39;19.96;45.55
28175;SHT30;59417;44.788;10.334;2023-03-23T12:39:31;20.20;46.96
28175;SHT30;59417;44.788;10.334;2023-03-23T12:47:43;21.55;42.73
28175;SHT30;59417;44.788;10.334;2023-03-23T12:50:27;21.73;41.41
28175;SHT30;59417;44.788;10.334;2023-03-23T12:53:00;21.92;42.39
28175;SHT30;59417;44.788;10.334;2023-03-23T12:58:20;21.77;40.46
28175;SHT30;59417;44.788;10.334;2023-03-23T13:01:10;21.47;40.87
28175;SHT30;59417;44.788;10.334;2023-03-23T13:06:47;21.60;40.88
28175;SHT30;59417;44.788;10.334;2023-03-23T13:09:30;21.06;42.36
28175;SHT30;59417;44.788;10.334;2023-03-23T13:11:59;20.99;42.75
28175;SHT30;59417;44.788;10.334;2023-03-23T13:15:02;20.60;43.49
28175;SHT30;59417;44.788;10.334;2023-03-23T13:28:27;21.47;42.25
28175;SHT30;59417;44.788;10.334;2023-03-23T13:33:29;21.81;41.55
28175;SHT30;59417;44.788;10.334;2023-03-23T13:35:55;21.97;40.76
28175;SHT30;59417;44.788;10.334;2023-03-23T13:38:26;22.00;40.75
28175;SHT30;59417;44.788;10.334;2023-03-23T13:40:53;21.98;41.25
28175;SHT30;59417;44.788;10.334;2023-03-23T13:43:34;22.06;42.19
28175;SHT30;59417;44.788;10.334;2023-03-23T13:48:50;22.27;40.28
28175;SHT30;59417;44.788;10.334;2023-03-23T13:51:35;22.32;40.63
28175;SHT30;59417;44.788;10.334;2023-03-23T13:54:15;22.47;42.37
28175;SHT30;59417;44.788;10.334;2023-03-23T14:01:52;22.61;41.82
28175;SHT30;59417;44.788;10.334;2023-03-23T14:04:19;22.73;42.03
28175;SHT30;59417;44.788;10.334;2023-03-23T14:06:47;22.76;40.75
28175;SHT30;59417;44.788;10.334;2023-03-23T14:09:26;22.83;41.71
28175;SHT30;59417;44.788;10.334;2023-03-23T14:11:58;22.75;41.04
28175;SHT30;59417;44.788;10.334;2023-03-23T14:14:29;22.88;41.61
28175;SHT30;59417;44.788;10.334;2023-03-23T14:17:07;22.98;41.54
28175;SHT30;59417;44.788;10.334;2023-03-23T14:19:32;23.02;41.38
28175;SHT30;59417;44.788;10.334;2023-03-23T14:22:00;23.03;40.91
28175;SHT30;59417;44.788;10.334;2023-03-23T14:24:28;22.90;42.96
28175;SHT30;59417;44.788;10.334;2023-03-23T14:27:22;22.93;42.35
28175;SHT30;59417;44.788;10.334;2023-03-23T14:30:02;22.92;41.74
28175;SHT30;59417;44.788;10.334;2023-03-23T14:32:31;22.89;40.41
28175;SHT30;59417;44.788;10.334;2023-03-23T14:34:58;22.68;41.09
28175;SHT30;59417;44.788;10.334;2023-03-23T14:37:25;22.64;41.25
28175;SHT30;59417;44.788;10.334;2023-03-23T14:39:53;22.68;42.87
28175;SHT30;59417;44.788;10.334;2023-03-23T14:42:27;22.72;42.05
28175;SHT30;59417;44.788;10.334;2023-03-23T14:44:53;22.72;42.25
28175;SHT30;59417;44.788;10.334;2023-03-23T14:47:32;22.73;42.67
28175;SHT30;59417;44.788;10.334;2023-03-23T14:50:00;22.76;42.41
28175;SHT30;59417;44.788;10.334;2023-03-23T14:52:29;22.76;41.32
28175;SHT30;59417;44.788;10.334;2023-03-23T14:55:12;22.59;41.84
28175;SHT30;59417;44.788;10.334;2023-03-23T14:57:40;22.65;42.18
28175;SHT30;59417;44.788;10.334;2023-03-23T15:00:15;22.42;42.81
28175;SHT30;59417;44.788;10.334;2023-03-23T15:02:44;22.39;42.26
28175;SHT30;59417;44.788;10.334;2023-03-23T15:07:37;22.45;43.00
28175;SHT30;59417;44.788;10.334;2023-03-23T15:10:16;22.29;43.13
28175;SHT30;59417;44.788;10.334;2023-03-23T15:12:47;22.22;43.11
28175;SHT30;59417;44.788;10.334;2023-03-23T15:15:22;22.18;42.96
28175;SHT30;59417;44.788;10.334;2023-03-23T15:17:50;22.21;43.46
28175;SHT30;59417;44.788;10.334;2023-03-23T15:22:48;22.16;43.14
28175;SHT30;59417;44.788;10.334;2023-03-23T15:25:29;22.14;43.37
28175;SHT30;59417;44.788;10.334;2023-03-23T15:27:57;22.16;43.36
28175;SHT30;59417;44.788;10.334;2023-03-23T15:32:51;22.17;42.95
28175;SHT30;59417;44.788;10.334;2023-03-23T15:35:19;22.17;43.22
28175;SHT30;59417;44.788;10.334;2023-03-23T15:38:05;22.21;44.04
28175;SHT30;59417;44.788;10.334;2023-03-23T15:40:37;22.18;42.93
28175;SHT30;59417;44.788;10.334;2023-03-23T15:45:32;22.03;42.86
28175;SHT30;59417;44.788;10.334;2023-03-23T15:48:10;22.14;44.51
28175;SHT30;59417;44.788;10.334;2023-03-23T15:50:36;22.35;42.46
28175;SHT30;59417;44.788;10.334;2023-03-23T15:53:29;22.38;42.72
28175;SHT30;59417;44.788;10.334;2023-03-23T15:55:55;22.45;43.04
28175;SHT30;59417;44.788;10.334;2023-03-23T15:58:23;22.45;42.30
28175;SHT30;59417;44.788;10.334;2023-03-23T16:00:50;22.48;42.30
28175;SHT30;59417;44.788;10.334;2023-03-23T16:03:29;22.45;42.88
28175;SHT30;59417;44.788;10.334;2023-03-23T16:05:56;22.48;42.53
28175;SHT30;59417;44.788;10.334;2023-03-23T16:08:25;22.39;41.89
28175;SHT30;59417;44.788;10.334;2023-03-23T16:10:51;22.32;42.49
28175;SHT30;59417;44.788;10.334;2023-03-23T16:13:17;22.28;42.71
28175;SHT30;59417;44.788;10.334;2023-03-23T16:15:43;22.28;43.28
28175;SHT30;59417;44.788;10.334;2023-03-23T16:18:18;22.14;43.30
28175;SHT30;59417;44.788;10.334;2023-03-23T16:20:49;22.07;43.76
28175;SHT30;59417;44.788;10.334;2023-03-23T16:23:15;22.08;43.94
28175;SHT30;59417;44.788;10.334;2023-03-23T16:25:41;22.01;43.54
28175;SHT30;59417;44.788;10.334;2023-03-23T16:28:11;21.93;42.96
28175;SHT30;59417;44.788;10.334;2023-03-23T16:30:38;21.89;43.17
28175;SHT30;59417;44.788;10.334;2023-03-23T16:33:04;21.87;43.40
28175;SHT30;59417;44.788;10.334;2023-03-23T16:35:30;21.87;43.81
28175;SHT30;59417;44.788;10.334;2023-03-23T16:37:56;21.84;43.31
28175;SHT30;59417;44.788;10.334;2023-03-23T16:40:23;21.81;43.34
28175;SHT30;59417;44.788;10.334;2023-03-23T16:42:49;21.83;43.67
28175;SHT30;59417;44.788;10.334;2023-03-23T16:45:16;21.74;43.88
28175;SHT30;59417;44.788;10.334;2023-03-23T16:47:42;21.69;43.96
28175;SHT30;59417;44.788;10.334;2023-03-23T16:50:14;21.59;43.97
28175;SHT30;59417;44.788;10.334;2023-03-23T16:52:41;21.49;44.02
28175;SHT30;59417;44.788;10.334;2023-03-23T16:55:08;21.49;44.43
28175;SHT30;59417;44.788;10.334;2023-03-23T16:57:34;21.45;44.16
28175;SHT30;59417;44.788;10.334;2023-03-23T17:00:08;21.46;43.91
28175;SHT30;59417;44.788;10.334;2023-03-23T17:02:40;21.38;43.59
28175;SHT30;59417;44.788;10.334;2023-03-23T17:05:06;21.31;43.75
28175;SHT30;59417;44.788;10.334;2023-03-23T17:07:33;21.28;43.70
28175;SHT30;59417;44.788;10.334;2023-03-23T17:09:59;21.22;43.97
28175;SHT30;59417;44.788;10.334;2023-03-23T17:12:25;21.12;44.84
28175;SHT30;59417;44.788;10.334;2023-03-23T17:14:51;20.96;44.84
28175;SHT30;59417;44.788;10.334;2023-03-23T17:17:17;20.92;45.60
28175;SHT30;59417;44.788;10.334;2023-03-23T17:19:43;20.78;45.08
28175;SHT30;59417;44.788;10.334;2023-03-23T17:22:09;20.70;45.18
28175;SHT30;59417;44.788;10.334;2023-03-23T17:24:34;20.60;45.39
28175;SHT30;59417;44.788;10.334;2023-03-23T17:27:00;20.45;46.02
28175;SHT30;59417;44.788;10.334;2023-03-23T17:29:26;20.43;46.51
28175;SHT30;59417;44.788;10.334;2023-03-23T17:31:51;20.43;46.35
28175;SHT30;59417;44.788;10.334;2023-03-23T17:34:17;20.43;46.22
28175;SHT30;59417;44.788;10.334;2023-03-23T17:36:43;20.30;45.49
28175;SHT30;59417;44.788;10.334;2023-03-23T17:39:09;20.27;45.39
28175;SHT30;59417;44.788;10.334;2023-03-23T17:41:35;20.19;46.54
28175;SHT30;59417;44.788;10.334;2023-03-23T17:44:00;20.13;45.89
28175;SHT30;59417;44.788;10.334;2023-03-23T17:46:26;20.16;45.57
28175;SHT30;59417;44.788;10.334;2023-03-23T17:48:52;20.27;44.75
28175;SHT30;59417;44.788;10.334;2023-03-23T17:51:18;20.16;45.12
28175;SHT30;59417;44.788;10.334;2023-03-23T17:53:45;20.10;45.34